Seihou Maru — JM6496 — position and weather

sailwx.info

Track history (hours):
 
Tides and Currents Weather Stations Pressure Air Temp Water Temp Dewpoint Dewpoint Depression Visibility Wind Speed Wind Dir Waves Ship Positions

Seihou Maru

Last reported at 2018-Jul-15 05:46 UTC. Time now 2018-Jul-16 06:28 UTC.
Position N 35°34' E 140°05'.

Length 71 m; draft 4.5 m.

Type: Tanker. MMSI: 431400523.

Date/timePositionNaut miles runAvg speedWind from/ knotsBaromVisibWave heightAir tempDewpointWater temp
2018-Jul-15 05:46N 35°34' E 140°05'5 0.2
2018-Jul-13 22:49N 35°30' E 140°01'1 2.1
2018-Jul-13 22:30N 35°30' E 140°00'0 0.0
2018-Jul-13 21:52N 35°30' E 140°00'0 0.0
2018-Jul-13 20:40N 35°30' E 140°01'0 0.0
2018-Jul-13 20:25N 35°30' E 140°01'0 0.0
2018-Jul-13 18:25N 35°30' E 140°01'0 0.0
2018-Jul-13 15:31N 35°30' E 140°00'0 0.0
2018-Jul-13 15:28N 35°30' E 140°00'0 0.1
2018-Jul-13 14:55N 35°30' E 140°01'0 0.0
2018-Jul-13 11:04N 35°30' E 140°01'0 0.0
2018-Jul-13 09:43N 35°30' E 140°01'0 0.0
2018-Jul-13 07:37N 35°30' E 140°01'0 0.0
2018-Jul-13 06:34N 35°30' E 140°01'0 0.7
2018-Jul-13 06:25N 35°30' E 140°00'510.5
2018-Jul-13 05:54N 35°35' E 139°59'5 2.3
2018-Jul-13 03:35N 35°40' E 139°57'0 3.5
2018-Jul-13 03:29N 35°40' E 139°57'711.1
2018-Jul-13 02:50N 35°33' E 139°59'3 0.6
2018-Jul-12 21:45N 35°30' E 140°01'0 0.0
2018-Jul-12 09:56N 35°30' E 140°00'0 0.0
2018-Jul-12 08:47N 35°30' E 140°00'0 0.0
2018-Jul-12 06:39N 35°30' E 140°00'3 9.6
2018-Jul-12 06:21N 35°33' E 139°59'3 0.4
2018-Jul-11 21:48N 35°30' E 140°01'1 0.1
2018-Jul-11 12:28N 35°30' E 139°60'511.7
2018-Jul-11 12:00N 35°29' E 139°54'612.6
2018-Jul-11 11:30N 35°25' E 139°47'612.6
2018-Jul-11 11:00N 35°19' E 139°44'611.8
2018-Jul-11 10:30N 35°14' E 139°47'612.1
2018-Jul-11 10:00N 35°08' E 139°44'612.0
2018-Jul-11 09:30N 35°04' E 139°39'713.4
2018-Jul-11 09:00N 34°59' E 139°33'815.3
2018-Jul-11 08:30N 34°54' E 139°26'13 0.3
2018-Jul-09 09:01N 34°49' E 139°11'010.4
2018-Jul-09 08:59N 34°50' E 139°11'1310.3
2018-Jul-09 07:45N 34°59' E 139°22'310.4
2018-Jul-09 07:27N 34°60' E 139°26'511.4
2018-Jul-09 06:59N 35°02' E 139°31'612.3
2018-Jul-09 06:30N 35°05' E 139°38'612.7
2018-Jul-09 06:00N 35°09' E 139°44'612.3
2018-Jul-09 05:30N 35°15' E 139°46'612.5
2018-Jul-09 05:01N 35°20' E 139°42'611.3
2018-Jul-09 04:31N 35°26' E 139°45'612.2
2018-Jul-09 04:01N 35°29' E 139°51'4 1.7
2018-Jul-09 01:52N 35°29' E 139°56'0 0.0
2018-Jul-08 11:55N 35°29' E 139°56'0 0.1
2018-Jul-08 11:22N 35°29' E 139°56'0 0.1
2018-Jul-08 09:49N 35°29' E 139°56'0 0.0
2018-Jul-08 06:43N 35°29' E 139°56'0 0.1
2018-Jul-08 06:19N 35°29' E 139°56'0 0.3
2018-Jul-08 06:00N 35°29' E 139°56'5 9.9
2018-Jul-08 05:29N 35°30' E 140°02'0 0.1
2018-Jul-08 04:14N 35°30' E 140°02'0 0.0
2018-Jul-07 23:26N 35°30' E 140°02'1 2.7
2018-Jul-07 22:59N 35°30' E 140°01'1 0.1
2018-Jul-07 15:56N 35°30' E 139°60'3 7.5
2018-Jul-07 15:30N 35°30' E 139°56'612.0
2018-Jul-07 15:00N 35°27' E 139°49'612.1
2018-Jul-07 14:30N 35°22' E 139°45'611.3
2018-Jul-07 14:00N 35°16' E 139°46'612.0
2018-Jul-07 13:28N 35°10' E 139°46'612.1
2018-Jul-07 13:00N 35°05' E 139°42'713.4
2018-Jul-07 12:30N 35°00' E 139°36'815.2
2018-Jul-07 12:00N 34°56' E 139°29'19 0.8
2018-Jul-06 11:44N 34°47' E 139°08'312.3
2018-Jul-06 11:28N 34°49' E 139°11'1210.9
2018-Jul-06 10:19N 34°58' E 139°22'310.2
2018-Jul-06 10:00N 34°60' E 139°25'510.6
2018-Jul-06 09:30N 35°02' E 139°31'611.8
2018-Jul-06 09:00N 35°05' E 139°37'612.5
2018-Jul-06 08:30N 35°09' E 139°43'612.0
2018-Jul-06 08:00N 35°14' E 139°46'612.2
2018-Jul-06 07:30N 35°20' E 139°43'612.0
2018-Jul-06 07:00N 35°26' E 139°45'713.2
2018-Jul-06 06:30N 35°30' E 139°51'8 1.0
2018-Jul-05 23:12N 35°30' E 140°01'0 0.9
2018-Jul-05 22:54N 35°30' E 140°01'0 0.0
2018-Jul-05 20:43N 35°30' E 140°01'0 0.0
2018-Jul-05 20:28N 35°30' E 140°01'0 0.0
2018-Jul-05 19:07N 35°30' E 140°01'0 0.2
2018-Jul-05 18:55N 35°30' E 140°01'0 0.0
2018-Jul-05 18:22N 35°30' E 140°01'0 0.1
2018-Jul-05 17:52N 35°30' E 140°01'0 0.0
2018-Jul-05 13:04N 35°30' E 140°01'0 0.0
2018-Jul-05 11:01N 35°30' E 140°01'0 0.0
2018-Jul-05 10:58N 35°30' E 140°01'0 0.0
2018-Jul-05 10:16N 35°30' E 140°01'0 0.2
2018-Jul-05 09:58N 35°30' E 140°01'0 0.0
2018-Jul-05 09:28N 35°30' E 140°01'0 0.1
2018-Jul-05 08:55N 35°30' E 140°01'0 0.1
2018-Jul-05 08:25N 35°30' E 140°01'0 0.1
2018-Jul-05 07:58N 35°30' E 140°01'0 0.1
2018-Jul-05 07:19N 35°30' E 140°01'0 0.0
2018-Jul-05 06:55N 35°30' E 140°01'0 0.0
2018-Jul-05 06:22N 35°30' E 140°01'0 0.0
2018-Jul-05 05:58N 35°30' E 140°01'  
Track history (hours):
 
Tides and Currents Weather Stations Pressure Air Temp Water Temp Dewpoint Dewpoint Depression Visibility Wind Speed Wind Dir Waves Ship Positions

Seihou Maru

Last reported at 2018-Jul-15 05:46 UTC. Time now 2018-Jul-16 06:28 UTC.
Position N 35°34' E 140°05'.

Length 71 m; draft 4.5 m.

Type: Tanker. MMSI: 431400523.

Date/timePositionNaut miles runAvg speedWind from/ knotsBaromVisibWave heightAir tempDewpointWater temp
2018-Jul-15 05:46N 35°34' E 140°05'5 0.2
2018-Jul-13 22:49N 35°30' E 140°01'1 2.1
2018-Jul-13 22:30N 35°30' E 140°00'0 0.0
2018-Jul-13 21:52N 35°30' E 140°00'0 0.0
2018-Jul-13 20:40N 35°30' E 140°01'0 0.0
2018-Jul-13 20:25N 35°30' E 140°01'0 0.0
2018-Jul-13 18:25N 35°30' E 140°01'0 0.0
2018-Jul-13 15:31N 35°30' E 140°00'0 0.0
2018-Jul-13 15:28N 35°30' E 140°00'0 0.1
2018-Jul-13 14:55N 35°30' E 140°01'0 0.0
2018-Jul-13 11:04N 35°30' E 140°01'0 0.0
2018-Jul-13 09:43N 35°30' E 140°01'0 0.0
2018-Jul-13 07:37N 35°30' E 140°01'0 0.0
2018-Jul-13 06:34N 35°30' E 140°01'0 0.7
2018-Jul-13 06:25N 35°30' E 140°00'510.5
2018-Jul-13 05:54N 35°35' E 139°59'5 2.3
2018-Jul-13 03:35N 35°40' E 139°57'0 3.5
2018-Jul-13 03:29N 35°40' E 139°57'711.1
2018-Jul-13 02:50N 35°33' E 139°59'3 0.6
2018-Jul-12 21:45N 35°30' E 140°01'0 0.0
2018-Jul-12 09:56N 35°30' E 140°00'0 0.0
2018-Jul-12 08:47N 35°30' E 140°00'0 0.0
2018-Jul-12 06:39N 35°30' E 140°00'3 9.6
2018-Jul-12 06:21N 35°33' E 139°59'3 0.4
2018-Jul-11 21:48N 35°30' E 140°01'1 0.1
2018-Jul-11 12:28N 35°30' E 139°60'511.7
2018-Jul-11 12:00N 35°29' E 139°54'612.6
2018-Jul-11 11:30N 35°25' E 139°47'612.6
2018-Jul-11 11:00N 35°19' E 139°44'611.8
2018-Jul-11 10:30N 35°14' E 139°47'612.1
2018-Jul-11 10:00N 35°08' E 139°44'612.0
2018-Jul-11 09:30N 35°04' E 139°39'713.4
2018-Jul-11 09:00N 34°59' E 139°33'815.3
2018-Jul-11 08:30N 34°54' E 139°26'13 0.3
2018-Jul-09 09:01N 34°49' E 139°11'010.4
2018-Jul-09 08:59N 34°50' E 139°11'1310.3
2018-Jul-09 07:45N 34°59' E 139°22'310.4
2018-Jul-09 07:27N 34°60' E 139°26'511.4
2018-Jul-09 06:59N 35°02' E 139°31'612.3
2018-Jul-09 06:30N 35°05' E 139°38'612.7
2018-Jul-09 06:00N 35°09' E 139°44'612.3
2018-Jul-09 05:30N 35°15' E 139°46'612.5
2018-Jul-09 05:01N 35°20' E 139°42'611.3
2018-Jul-09 04:31N 35°26' E 139°45'612.2
2018-Jul-09 04:01N 35°29' E 139°51'4 1.7
2018-Jul-09 01:52N 35°29' E 139°56'0 0.0
2018-Jul-08 11:55N 35°29' E 139°56'0 0.1
2018-Jul-08 11:22N 35°29' E 139°56'0 0.1
2018-Jul-08 09:49N 35°29' E 139°56'0 0.0
2018-Jul-08 06:43N 35°29' E 139°56'0 0.1
2018-Jul-08 06:19N 35°29' E 139°56'0 0.3
2018-Jul-08 06:00N 35°29' E 139°56'5 9.9
2018-Jul-08 05:29N 35°30' E 140°02'0 0.1
2018-Jul-08 04:14N 35°30' E 140°02'0 0.0
2018-Jul-07 23:26N 35°30' E 140°02'1 2.7
2018-Jul-07 22:59N 35°30' E 140°01'1 0.1
2018-Jul-07 15:56N 35°30' E 139°60'3 7.5
2018-Jul-07 15:30N 35°30' E 139°56'612.0
2018-Jul-07 15:00N 35°27' E 139°49'612.1
2018-Jul-07 14:30N 35°22' E 139°45'611.3
2018-Jul-07 14:00N 35°16' E 139°46'612.0
2018-Jul-07 13:28N 35°10' E 139°46'612.1
2018-Jul-07 13:00N 35°05' E 139°42'713.4
2018-Jul-07 12:30N 35°00' E 139°36'815.2
2018-Jul-07 12:00N 34°56' E 139°29'19 0.8
2018-Jul-06 11:44N 34°47' E 139°08'312.3
2018-Jul-06 11:28N 34°49' E 139°11'1210.9
2018-Jul-06 10:19N 34°58' E 139°22'310.2
2018-Jul-06 10:00N 34°60' E 139°25'510.6
2018-Jul-06 09:30N 35°02' E 139°31'611.8
2018-Jul-06 09:00N 35°05' E 139°37'612.5
2018-Jul-06 08:30N 35°09' E 139°43'612.0
2018-Jul-06 08:00N 35°14' E 139°46'612.2
2018-Jul-06 07:30N 35°20' E 139°43'612.0
2018-Jul-06 07:00N 35°26' E 139°45'713.2
2018-Jul-06 06:30N 35°30' E 139°51'8 1.0
2018-Jul-05 23:12N 35°30' E 140°01'0 0.9
2018-Jul-05 22:54N 35°30' E 140°01'0 0.0
2018-Jul-05 20:43N 35°30' E 140°01'0 0.0
2018-Jul-05 20:28N 35°30' E 140°01'0 0.0
2018-Jul-05 19:07N 35°30' E 140°01'0 0.2
2018-Jul-05 18:55N 35°30' E 140°01'0 0.0
2018-Jul-05 18:22N 35°30' E 140°01'0 0.1
2018-Jul-05 17:52N 35°30' E 140°01'0 0.0
2018-Jul-05 13:04N 35°30' E 140°01'0 0.0
2018-Jul-05 11:01N 35°30' E 140°01'0 0.0
2018-Jul-05 10:58N 35°30' E 140°01'0 0.0
2018-Jul-05 10:16N 35°30' E 140°01'0 0.2
2018-Jul-05 09:58N 35°30' E 140°01'0 0.0
2018-Jul-05 09:28N 35°30' E 140°01'0 0.1
2018-Jul-05 08:55N 35°30' E 140°01'0 0.1
2018-Jul-05 08:25N 35°30' E 140°01'0 0.1
2018-Jul-05 07:58N 35°30' E 140°01'0 0.1
2018-Jul-05 07:19N 35°30' E 140°01'0 0.0
2018-Jul-05 06:55N 35°30' E 140°01'0 0.0
2018-Jul-05 06:22N 35°30' E 140°01'0 0.0
2018-Jul-05 05:58N 35°30' E 140°01'  

Dump ship's entire track history